Time;durP1;ratioP1;P1;durP2;ratioP2;P2;SDS_P1;SDS_P2;PMS_P1;PMS_P2;Temp;Humidity;BMP_temperature;BMP_pressure;BME280_temperature;BME280_humidity;BME280_pressure;Samples;Min_cycle;Max_cycle;Signal;HPM_P1;HPM_P2
2021/03/30 00:06:46;;;;;;;0.37;0.27;;;10.50;99.90;;;;;;20715180;28;20243;-73
2021/03/30 00:16:48;;;;;;;0.30;0.30;;;10.60;99.90;;;;;;20661643;28;20211;-74
2021/03/30 00:26:52;;;;;;;0.67;0.50;;;10.60;99.90;;;;;;20715664;28;20223;-74
2021/03/30 00:36:54;;;;;;;0.87;0.83;;;10.80;99.90;;;;;;20719232;28;20221;-73
2021/03/30 00:47:01;;;;;;;0.40;0.40;;;10.70;99.90;;;;;;20740415;28;20318;-74
2021/03/30 00:57:05;;;;;;;0.20;0.10;;;10.60;99.90;;;;;;20739615;28;20202;-74
2021/03/30 01:07:09;;;;;;;1.23;1.13;;;10.30;99.90;;;;;;20690655;22;20744;-81
2021/03/30 01:17:25;;;;;;;0.20;0.10;;;10.30;99.90;;;;;;20738185;28;20223;-78
2021/03/30 01:27:37;;;;;;;0.30;0.30;;;10.10;99.90;;;;;;20797449;28;20260;-79
2021/03/30 01:37:45;;;;;;;0.67;0.43;;;9.90;99.90;;;;;;20765372;28;20206;-80
2021/03/30 01:47:50;;;;;;;0.20;0.10;;;9.80;99.90;;;;;;20717890;28;20679;-79
2021/03/30 01:57:58;;;;;;;0.30;0.23;;;10.10;99.90;;;;;;20717192;28;20234;-79
2021/03/30 02:08:02;;;;;;;0.20;0.20;;;10.20;99.90;;;;;;20746455;23;20226;-72
2021/03/30 02:18:07;;;;;;;0.27;0.23;;;10.10;99.90;;;;;;20743347;28;20221;-73
2021/03/30 02:28:16;;;;;;;11.93;0.87;;;9.80;99.90;;;;;;20882153;28;20276;-73
2021/03/30 02:38:20;;;;;;;0.30;0.30;;;9.80;99.90;;;;;;20899310;28;20312;-73
2021/03/30 02:48:24;;;;;;;1.37;0.80;;;9.80;99.90;;;;;;20898363;28;20561;-72
2021/03/30 02:58:28;;;;;;;0.50;0.40;;;9.50;99.90;;;;;;20895117;28;20209;-72
2021/03/30 03:08:32;;;;;;;0.43;0.30;;;9.40;99.90;;;;;;20775730;28;20234;-73
2021/03/30 03:18:36;;;;;;;4.23;0.93;;;9.40;99.90;;;;;;20747534;28;20699;-72
2021/03/30 03:28:40;;;;;;;2.53;0.53;;;9.50;99.90;;;;;;20888140;28;20200;-74
2021/03/30 03:38:45;;;;;;;1.90;0.60;;;9.70;99.90;;;;;;20909980;28;20217;-72
2021/03/30 03:48:47;;;;;;;1.07;0.83;;;9.50;99.90;;;;;;20910118;28;20225;-73
2021/03/30 03:58:56;;;;;;;0.70;0.40;;;9.40;99.90;;;;;;20908568;28;20213;-75
2021/03/30 04:09:07;;;;;;;3.53;1.53;;;9.40;99.90;;;;;;20860201;23;20714;-79
2021/03/30 04:19:11;;;;;;;1.27;1.07;;;9.50;99.90;;;;;;20745692;28;20222;-83
2021/03/30 04:29:14;;;;;;;0.20;0.20;;;9.40;99.90;;;;;;20732394;28;20273;-82
2021/03/30 04:39:18;;;;;;;0.43;0.33;;;9.30;99.90;;;;;;20710549;28;20226;-81
2021/03/30 04:49:22;;;;;;;4.67;0.93;;;9.20;99.90;;;;;;20660369;28;20598;-82
2021/03/30 04:59:27;;;;;;;0.30;0.20;;;9.60;99.90;;;;;;20713302;28;20244;-83
2021/03/30 05:09:30;;;;;;;1.27;1.03;;;9.40;99.90;;;;;;20723946;28;20230;-81
2021/03/30 05:19:34;;;;;;;0.80;0.60;;;9.30;99.90;;;;;;20721380;28;20593;-84
2021/03/30 05:29:43;;;;;;;1.17;0.80;;;9.30;99.90;;;;;;20733224;28;20305;-81
2021/03/30 05:39:47;;;;;;;1.13;0.87;;;9.30;99.90;;;;;;20736249;28;20229;-77
2021/03/30 05:49:51;;;;;;;0.60;0.50;;;9.50;99.90;;;;;;20738933;28;20304;-81
2021/03/30 05:59:57;;;;;;;1.30;0.50;;;9.60;99.90;;;;;;20737682;28;20234;-81
2021/03/30 06:09:59;;;;;;;0.30;0.30;;;9.70;99.90;;;;;;20818455;28;20240;-79
2021/03/30 06:20:05;;;;;;;0.83;0.80;;;9.80;99.90;;;;;;20818402;28;20292;-78
2021/03/30 06:30:09;;;;;;;0.30;0.30;;;10.20;99.90;;;;;;20660739;28;20219;-80
2021/03/30 06:40:20;;;;;;;1.23;1.00;;;10.80;99.90;;;;;;20653722;28;20223;-78
2021/03/30 06:50:29;;;;;;;1.17;1.07;;;11.40;99.90;;;;;;20637578;28;20245;-84
2021/03/30 07:00:36;;;;;;;1.70;0.83;;;12.10;99.90;;;;;;20655365;28;20235;-84
2021/03/30 07:10:42;;;;;;;0.57;0.50;;;12.60;99.90;;;;;;20647641;28;20237;-81
2021/03/30 07:20:50;;;;;;;3.70;1.13;;;13.40;99.90;;;;;;20658633;28;20225;-76
2021/03/30 07:30:56;;;;;;;0.27;0.13;;;13.70;99.90;;;;;;20813093;28;20249;-80
2021/03/30 07:40:59;;;;;;;0.30;0.13;;;14.00;99.90;;;;;;20824932;28;20599;-82
2021/03/30 07:51:06;;;;;;;0.50;0.33;;;14.20;99.90;;;;;;20777431;28;20204;-80
2021/03/30 08:01:11;;;;;;;1.30;0.60;;;14.50;99.90;;;;;;20676468;28;20236;-82
2021/03/30 08:11:15;;;;;;;1.77;1.53;;;14.80;99.90;;;;;;20681367;28;20225;-82
2021/03/30 08:21:22;;;;;;;1.63;1.03;;;14.70;99.90;;;;;;20708566;28;20727;-82
2021/03/30 08:31:28;;;;;;;0.47;0.47;;;14.90;99.90;;;;;;20730499;28;20777;-80
2021/03/30 08:42:15;;;;;;;0.60;0.60;;;15.00;99.90;;;;;;20671064;28;20600;-83
2021/03/30 08:52:19;;;;;;;6.80;0.97;;;15.00;99.90;;;;;;20646235;28;20210;-82
2021/03/30 09:02:27;;;;;;;0.43;0.43;;;15.20;99.90;;;;;;20696364;28;20237;-82
2021/03/30 09:12:30;;;;;;;0.40;0.40;;;15.20;99.90;;;;;;20735509;28;20203;-86
2021/03/30 09:22:36;;;;;;;0.50;0.50;;;15.10;99.90;;;;;;20742224;28;20298;-75
2021/03/30 09:32:44;;;;;;;0.23;0.17;;;15.00;99.90;;;;;;20742132;28;20191;-78
2021/03/30 09:42:48;;;;;;;0.20;0.10;;;15.00;99.90;;;;;;20674341;28;20262;-74
2021/03/30 09:52:51;;;;;;;0.20;0.20;;;15.30;99.90;;;;;;20650445;28;20659;-82
2021/03/30 10:02:56;;;;;;;2.10;1.87;;;15.40;99.90;;;;;;20704497;28;20321;-84
2021/03/30 10:13:00;;;;;;;0.40;0.30;;;15.60;99.90;;;;;;20714184;28;20242;-77
2021/03/30 10:23:17;;;;;;;1.27;0.63;;;16.00;99.90;;;;;;20767823;28;20225;-75
2021/03/30 10:33:33;;;;;;;29.47;0.93;;;16.10;99.90;;;;;;20798219;28;20551;-78
2021/03/30 10:43:40;;;;;;;2.13;0.90;;;16.90;99.90;;;;;;20781647;28;20269;-77
2021/03/30 10:53:43;;;;;;;0.30;0.30;;;16.70;99.90;;;;;;20701671;28;20254;-80
2021/03/30 11:03:46;;;;;;;3.60;1.13;;;17.60;99.90;;;;;;20639825;28;20266;-83
2021/03/30 11:13:49;;;;;;;0.50;0.50;;;17.80;99.90;;;;;;20725200;28;20339;-78
2021/03/30 11:24:00;;;;;;;0.80;0.60;;;18.60;99.90;;;;;;20751028;28;20210;-77
2021/03/30 11:34:09;;;;;;;0.50;0.40;;;19.10;99.90;;;;;;20683035;28;20203;-78
2021/03/30 11:44:13;;;;;;;1.13;0.70;;;19.40;99.90;;;;;;20728549;28;20227;-80
2021/03/30 11:54:16;;;;;;;1.60;0.87;;;20.30;99.90;;;;;;20724255;28;20191;-86
2021/03/30 12:04:20;;;;;;;1.03;0.50;;;20.00;99.90;;;;;;20746938;28;20227;-82
2021/03/30 12:14:23;;;;;;;1.03;0.40;;;20.20;99.90;;;;;;20749502;28;20639;-79
2021/03/30 12:24:27;;;;;;;0.30;0.20;;;20.90;99.90;;;;;;20723380;28;20223;-78
2021/03/30 12:34:30;;;;;;;0.43;0.40;;;20.70;99.90;;;;;;20738996;28;20191;-75
2021/03/30 12:44:34;;;;;;;0.27;0.20;;;21.50;99.90;;;;;;20748435;28;20235;-80
2021/03/30 12:54:37;;;;;;;2.20;0.30;;;21.90;99.90;;;;;;20726297;28;20546;-82
2021/03/30 13:04:44;;;;;;;0.20;0.17;;;21.50;99.90;;;;;;20672239;28;20230;-82
2021/03/30 13:14:47;;;;;;;0.30;0.30;;;21.00;99.90;;;;;;20708424;28;20195;-79
2021/03/30 13:24:50;;;;;;;0.30;0.30;;;21.90;99.90;;;;;;20743082;28;20662;-81
2021/03/30 13:34:54;;;;;;;0.50;0.50;;;21.70;99.90;;;;;;20741455;28;20562;-81
2021/03/30 13:44:58;;;;;;;0.20;0.20;;;22.50;99.90;;;;;;20702874;28;20219;-79
2021/03/30 13:55:01;;;;;;;3.20;0.70;;;23.10;99.90;;;;;;20720799;28;20647;-81
2021/03/30 14:05:05;;;;;;;0.50;0.30;;;22.40;99.90;;;;;;20734255;28;20265;-82
2021/03/30 14:15:13;;;;;;;0.50;0.40;;;23.30;99.90;;;;;;20734973;28;20198;-81
2021/03/30 14:25:34;;;;;;;0.30;0.30;;;23.20;99.90;;;;;;20778042;28;20222;-76
2021/03/30 14:35:37;;;;;;;1.33;0.97;;;23.80;99.90;;;;;;20744876;28;20206;-79
2021/03/30 14:46:14;;;;;;;1.10;0.40;;;23.60;99.90;;;;;;20731254;28;20261;-76
2021/03/30 14:56:47;;;;;;;1.07;0.63;;;24.10;99.90;;;;;;20730380;28;20199;-79
2021/03/30 15:06:52;;;;;;;1.50;1.40;;;24.00;99.90;;;;;;20735729;28;20266;-75
2021/03/30 15:16:58;;;;;;;1.85;0.88;;;24.50;99.90;;;;;;20747983;28;20508;-77
2021/03/30 15:27:01;;;;;;;0.27;0.27;;;24.70;99.90;;;;;;20731828;28;20270;-81
2021/03/30 15:37:04;;;;;;;0.63;0.60;;;23.20;99.90;;;;;;20663789;28;20218;-83
2021/03/30 15:47:18;;;;;;;0.87;0.40;;;24.10;99.90;;;;;;20663236;28;20314;-83
2021/03/30 15:57:25;;;;;;;8.90;0.43;;;23.40;99.90;;;;;;20729927;28;20616;-81
2021/03/30 16:07:29;;;;;;;2.73;2.20;;;22.70;99.90;;;;;;20725369;28;20219;-82
2021/03/30 16:17:32;;;;;;;0.60;0.60;;;21.60;99.90;;;;;;20744458;28;20286;-81
2021/03/30 16:27:36;;;;;;;0.50;0.50;;;20.80;99.90;;;;;;20727550;28;20225;-78
2021/03/30 16:37:41;;;;;;;3.53;0.80;;;20.00;99.90;;;;;;20742038;28;20269;-79
2021/03/30 16:47:46;;;;;;;0.33;0.30;;;19.40;99.90;;;;;;20719928;28;20234;-80
2021/03/30 16:57:48;;;;;;;0.47;0.47;;;19.00;99.90;;;;;;20693534;28;20195;-79
2021/03/30 17:07:52;;;;;;;0.57;0.40;;;18.70;99.90;;;;;;20667164;28;20247;-77
2021/03/30 17:17:55;;;;;;;0.43;0.43;;;18.80;99.90;;;;;;20689053;28;20346;-80
2021/03/30 17:28:16;;;;;;;0.60;0.30;;;18.40;99.90;;;;;;20770681;28;20221;-81
2021/03/30 17:38:19;;;;;;;13.23;1.17;;;18.20;99.90;;;;;;20760776;28;20203;-82
2021/03/30 17:48:28;;;;;;;3.17;1.27;;;17.60;99.90;;;;;;20736557;28;20310;-82
2021/03/30 17:58:31;;;;;;;2.10;1.00;;;17.00;99.90;;;;;;20738656;28;20648;-79
2021/03/30 18:08:36;;;;;;;1.70;1.60;;;16.50;99.90;;;;;;20735654;28;20285;-82
2021/03/30 18:18:40;;;;;;;0.50;0.50;;;16.10;99.90;;;;;;20714271;28;20195;-79
2021/03/30 18:28:43;;;;;;;1.60;0.57;;;15.90;99.90;;;;;;20664167;28;20207;-78
2021/03/30 18:38:46;;;;;;;7.83;1.00;;;15.80;99.90;;;;;;20648562;28;20199;-76
2021/03/30 18:48:51;;;;;;;1.13;1.07;;;15.30;99.90;;;;;;20653734;28;20230;-77
2021/03/30 18:58:55;;;;;;;3.80;1.67;;;15.50;99.90;;;;;;20655427;28;20207;-79
2021/03/30 19:08:59;;;;;;;0.97;0.43;;;15.40;99.90;;;;;;20700199;28;20266;-79
2021/03/30 19:19:01;;;;;;;0.20;0.20;;;14.50;99.90;;;;;;20713331;28;20203;-80
2021/03/30 19:29:06;;;;;;;0.20;0.20;;;14.20;99.90;;;;;;20783445;28;20241;-79
2021/03/30 19:39:09;;;;;;;1.17;1.10;;;13.80;99.90;;;;;;20820383;28;20229;-79
2021/03/30 19:49:13;;;;;;;0.20;0.20;;;13.50;99.90;;;;;;20824691;28;20284;-80
2021/03/30 19:59:17;;;;;;;0.20;0.20;;;13.30;99.90;;;;;;20822535;28;20412;-78
2021/03/30 20:09:20;;;;;;;0.30;0.30;;;13.10;99.90;;;;;;20822916;28;20656;-76
2021/03/30 20:19:23;;;;;;;0.47;0.47;;;12.90;99.90;;;;;;20822028;28;20233;-77
2021/03/30 20:29:26;;;;;;;0.30;0.30;;;12.40;99.90;;;;;;20745336;28;20229;-79
2021/03/30 20:39:29;;;;;;;9.53;0.83;;;12.40;99.90;;;;;;20742925;28;20317;-79
2021/03/30 20:49:33;;;;;;;0.50;0.50;;;12.40;99.90;;;;;;20738621;28;20667;-79
2021/03/30 20:59:36;;;;;;;0.20;0.20;;;12.10;99.90;;;;;;20738378;28;20194;-78
2021/03/30 21:09:40;;;;;;;2.30;0.40;;;11.70;99.90;;;;;;20742020;28;20715;-80
2021/03/30 21:19:43;;;;;;;0.80;0.50;;;11.70;99.90;;;;;;20740271;28;20274;-81
2021/03/30 21:29:47;;;;;;;0.20;0.20;;;11.50;99.90;;;;;;20742087;28;20540;-83
2021/03/30 21:39:50;;;;;;;0.40;0.40;;;11.10;99.90;;;;;;20803524;28;20199;-83
2021/03/30 21:49:53;;;;;;;0.20;0.20;;;11.10;99.90;;;;;;20795289;28;20218;-84
2021/03/30 21:59:58;;;;;;;0.30;0.30;;;11.10;99.90;;;;;;20702928;28;20739;-84
2021/03/30 22:10:02;;;;;;;0.40;0.40;;;11.00;99.90;;;;;;20721475;28;20230;-83
2021/03/30 22:20:09;;;;;;;6.10;0.80;;;10.90;99.90;;;;;;20704334;28;20226;-83
2021/03/30 22:30:18;;;;;;;0.33;0.33;;;10.70;99.90;;;;;;20735413;28;20286;-83
2021/03/30 22:40:21;;;;;;;0.90;0.73;;;10.70;99.90;;;;;;20711700;28;20599;-82
2021/03/30 22:50:25;;;;;;;2.77;1.53;;;10.70;99.90;;;;;;20761996;28;20207;-83
2021/03/30 23:00:29;;;;;;;0.40;0.40;;;10.50;99.90;;;;;;20732184;28;20205;-82
2021/03/30 23:10:34;;;;;;;0.40;0.40;;;10.40;99.90;;;;;;20740396;28;20202;-84
2021/03/30 23:20:38;;;;;;;0.40;0.40;;;10.40;99.90;;;;;;20727228;28;20206;-83
2021/03/30 23:30:41;;;;;;;0.30;0.30;;;10.20;99.90;;;;;;20756848;28;20249;-81
2021/03/30 23:40:44;;;;;;;0.93;0.80;;;10.10;99.90;;;;;;20830479;28;20218;-84
2021/03/30 23:50:48;;;;;;;0.47;0.37;;;10.00;99.90;;;;;;20848020;28;20205;-83
